createdAt,value
2023-05-18T00:00:19.520Z,13.39
2023-05-18T00:02:48.478Z,13.18
2023-05-18T00:05:18.167Z,13.38
2023-05-18T00:07:46.395Z,13.31
2023-05-18T00:10:15.685Z,13.28
2023-05-18T00:12:43.489Z,13.17
2023-05-18T00:15:11.640Z,13.17
2023-05-18T00:17:39.448Z,13.13
2023-05-18T00:20:13.354Z,13.15
2023-05-18T00:22:42.850Z,13.11
2023-05-18T00:25:11.004Z,13.07
2023-05-18T00:27:40.173Z,13.08
2023-05-18T00:30:09.090Z,13.06
2023-05-18T00:32:37.140Z,13.04
2023-05-18T00:35:05.708Z,12.90
2023-05-18T00:37:33.489Z,12.97
2023-05-18T00:40:01.296Z,12.96
2023-05-18T00:42:29.400Z,12.95
2023-05-18T00:44:58.603Z,12.95
2023-05-18T00:47:27.609Z,12.79
2023-05-18T00:49:55.760Z,12.86
2023-05-18T00:52:24.676Z,12.86
2023-05-18T00:54:53.773Z,12.80
2023-05-18T00:57:21.581Z,12.78
2023-05-18T00:59:51.189Z,12.78
2023-05-18T01:02:20.453Z,12.73
2023-05-18T01:04:48.557Z,12.71
2023-05-18T01:07:16.568Z,12.65
2023-05-18T01:09:44.439Z,12.61
2023-05-18T01:12:22.037Z,12.68
2023-05-18T01:14:57.156Z,12.71
2023-05-18T01:17:35.103Z,12.56
2023-05-18T01:20:30.133Z,12.61
2023-05-18T01:23:10.168Z,12.56
2023-05-18T01:25:48.554Z,12.52
2023-05-18T01:28:21.437Z,12.45
2023-05-18T01:30:49.635Z,12.40
2023-05-18T01:33:17.457Z,12.37
2023-05-18T01:35:48.425Z,12.30
2023-05-18T01:38:18.776Z,12.31
2023-05-18T01:40:55.907Z,12.30
2023-05-18T01:43:31.766Z,12.21
2023-05-18T01:46:05.307Z,12.26
2023-05-18T01:48:38.063Z,12.21
2023-05-18T01:51:07.425Z,12.20
2023-05-18T01:53:42.238Z,12.16
2023-05-18T01:56:13.892Z,12.17
2023-05-18T01:58:44.477Z,12.13
2023-05-18T02:01:12.631Z,12.06
2023-05-18T02:03:40.586Z,12.06
2023-05-18T02:06:08.713Z,12.02
2023-05-18T02:08:37.741Z,12.04
2023-05-18T02:11:05.886Z,12.02
2023-05-18T02:13:34.386Z,11.96
2023-05-18T02:16:04.409Z,11.98
2023-05-18T02:18:34.129Z,11.93
2023-05-18T02:21:02.748Z,11.91
2023-05-18T02:23:33.902Z,11.91
2023-05-18T02:26:02.188Z,11.80
2023-05-18T02:28:30.674Z,11.83
2023-05-18T02:31:07.924Z,11.90
2023-05-18T02:33:39.831Z,11.86
2023-05-18T02:36:09.835Z,11.84
2023-05-18T02:38:38.914Z,11.84
2023-05-18T02:41:08.121Z,11.85
2023-05-18T02:43:36.386Z,11.82
2023-05-18T02:46:04.705Z,11.60
2023-05-18T02:48:35.129Z,11.76
2023-05-18T02:51:02.986Z,11.66
2023-05-18T02:53:31.122Z,11.57
2023-05-18T02:56:04.906Z,11.64
2023-05-18T02:58:43.692Z,11.71
2023-05-18T03:01:18.805Z,11.62
2023-05-18T03:03:53.075Z,11.58
2023-05-18T03:06:23.374Z,11.53
2023-05-18T03:08:54.248Z,11.42
2023-05-18T03:11:26.204Z,11.56
2023-05-18T03:13:54.775Z,11.52
2023-05-18T03:16:28.020Z,11.43
2023-05-18T03:18:59.123Z,11.48
2023-05-18T03:21:33.813Z,11.43
2023-05-18T03:24:03.250Z,11.45
2023-05-18T03:26:32.842Z,11.43
2023-05-18T03:29:01.201Z,11.45
2023-05-18T03:31:29.110Z,11.27
2023-05-18T03:34:00.281Z,11.41
2023-05-18T03:36:28.908Z,11.35
2023-05-18T03:38:56.702Z,11.34
2023-05-18T03:41:25.029Z,11.25
2023-05-18T03:43:54.990Z,11.27
2023-05-18T03:46:23.805Z,11.24
2023-05-18T03:48:53.864Z,11.24
2023-05-18T03:51:29.174Z,11.23
2023-05-18T03:53:57.079Z,11.23
2023-05-18T03:56:24.898Z,11.17
2023-05-18T03:58:52.929Z,11.15
2023-05-18T04:01:23.755Z,11.20
2023-05-18T04:03:56.445Z,11.21
2023-05-18T04:06:27.624Z,11.21
2023-05-18T04:08:55.864Z,11.20
2023-05-18T04:11:24.418Z,11.15
2023-05-18T04:13:52.176Z,11.20
2023-05-18T04:16:21.995Z,11.18
2023-05-18T04:18:49.941Z,11.16
2023-05-18T04:21:19.427Z,11.08
2023-05-18T04:23:49.012Z,11.20
2023-05-18T04:26:20.256Z,11.17
2023-05-18T04:28:48.345Z,11.10
2023-05-18T04:31:17.868Z,11.19
2023-05-18T04:33:46.661Z,11.21
2023-05-18T04:36:15.149Z,11.20
2023-05-18T04:38:43.171Z,11.24
2023-05-18T04:41:12.594Z,11.25
2023-05-18T04:43:41.665Z,11.26
2023-05-18T04:46:10.239Z,11.34
2023-05-18T04:48:38.940Z,11.41
2023-05-18T04:51:07.187Z,11.46
2023-05-18T04:53:35.682Z,11.47
2023-05-18T04:56:03.515Z,11.48
2023-05-18T04:58:35.603Z,11.49
2023-05-18T05:01:03.468Z,11.45
2023-05-18T05:03:31.461Z,11.46
2023-05-18T05:05:59.460Z,11.44
2023-05-18T05:08:27.265Z,11.46
2023-05-18T05:10:55.098Z,11.46
2023-05-18T05:13:22.992Z,11.51
2023-05-18T05:15:52.355Z,11.54
2023-05-18T05:18:20.427Z,11.52
2023-05-18T05:20:49.151Z,11.52
2023-05-18T05:23:17.720Z,11.55
2023-05-18T05:25:46.852Z,11.60
2023-05-18T05:28:14.709Z,11.62
2023-05-18T05:30:43.345Z,11.64
2023-05-18T05:33:12.577Z,11.64
2023-05-18T05:35:40.624Z,11.62
2023-05-18T05:38:08.484Z,11.68
2023-05-18T05:40:36.522Z,11.73
2023-05-18T05:43:06.091Z,11.75
2023-05-18T05:45:34.443Z,11.73
2023-05-18T05:48:06.156Z,11.80
2023-05-18T05:50:37.015Z,11.82
2023-05-18T05:53:06.245Z,11.61
2023-05-18T05:55:41.220Z,11.83
2023-05-18T05:58:13.002Z,11.87
2023-05-18T06:00:43.240Z,11.90
2023-05-18T06:03:11.177Z,11.91
2023-05-18T06:05:44.303Z,11.96
2023-05-18T06:08:14.169Z,11.96
2023-05-18T06:10:42.600Z,12.07
2023-05-18T06:13:12.651Z,12.16
2023-05-18T06:15:48.993Z,12.12
2023-05-18T06:18:16.879Z,12.17
2023-05-18T06:20:47.393Z,12.17
2023-05-18T06:23:22.402Z,12.19
2023-05-18T06:26:07.046Z,12.18
2023-05-18T06:28:53.013Z,12.22
2023-05-18T06:31:41.478Z,12.30
2023-05-18T06:34:12.070Z,12.33
2023-05-18T06:36:41.660Z,12.37
2023-05-18T06:39:09.770Z,12.32
2023-05-18T06:41:37.601Z,12.20
2023-05-18T06:44:06.612Z,12.49
2023-05-18T06:46:37.914Z,12.49
2023-05-18T06:49:14.835Z,12.54
2023-05-18T06:51:44.125Z,12.52
2023-05-18T06:54:12.560Z,12.63
2023-05-18T06:56:40.442Z,12.66
2023-05-18T06:59:08.398Z,12.71
2023-05-18T07:01:36.785Z,12.73
2023-05-18T07:04:05.771Z,12.69
2023-05-18T07:06:33.725Z,12.80
2023-05-18T07:09:03.587Z,12.83
2023-05-18T07:11:31.394Z,12.85
2023-05-18T07:13:59.165Z,12.89
2023-05-18T07:16:28.330Z,12.88
2023-05-18T07:18:57.568Z,12.88
2023-05-18T07:21:26.222Z,12.92
2023-05-18T07:23:54.101Z,12.98
2023-05-18T07:26:23.472Z,13.01
2023-05-18T07:28:51.951Z,13.06
2023-05-18T07:31:21.684Z,13.08
2023-05-18T07:33:49.821Z,13.10
2023-05-18T07:36:17.691Z,12.96
2023-05-18T07:38:45.457Z,13.12
2023-05-18T07:41:13.414Z,13.14
2023-05-18T07:43:42.552Z,13.16
2023-05-18T07:46:10.348Z,13.20
2023-05-18T07:48:40.546Z,13.21
2023-05-18T07:51:09.169Z,13.12
2023-05-18T07:53:37.930Z,13.31
2023-05-18T07:56:07.035Z,13.33
2023-05-18T07:58:35.038Z,13.31
2023-05-18T08:01:04.541Z,13.40
2023-05-18T08:03:32.929Z,13.47
2023-05-18T08:06:01.196Z,13.51
2023-05-18T08:08:29.017Z,13.50
2023-05-18T08:10:56.804Z,13.49
2023-05-18T08:13:24.660Z,13.52
2023-05-18T08:16:02.980Z,13.56
2023-05-18T08:18:39.364Z,13.57
2023-05-18T08:21:09.912Z,13.60
2023-05-18T08:23:38.633Z,13.66
2023-05-18T08:26:08.236Z,13.80
2023-05-18T08:28:36.274Z,13.75
2023-05-18T08:31:04.073Z,13.74
2023-05-18T08:33:32.533Z,13.79
2023-05-18T08:36:01.848Z,13.83
2023-05-18T08:38:29.785Z,13.84
2023-05-18T08:41:09.432Z,13.88
2023-05-18T08:43:42.899Z,14.04
2023-05-18T08:46:18.343Z,14.02
2023-05-18T08:48:46.927Z,14.01
2023-05-18T08:51:20.608Z,14.22
2023-05-18T08:53:53.967Z,14.20
2023-05-18T08:56:24.370Z,14.18
2023-05-18T08:58:56.052Z,14.34
2023-05-18T09:01:28.838Z,14.32
2023-05-18T09:03:58.103Z,14.30
2023-05-18T09:06:28.385Z,14.38
2023-05-18T09:08:58.425Z,14.34
2023-05-18T09:11:28.208Z,14.38
2023-05-18T09:13:56.053Z,14.47
2023-05-18T09:16:24.603Z,14.55
2023-05-18T09:18:52.876Z,14.52
2023-05-18T09:21:20.754Z,14.45
2023-05-18T09:23:52.438Z,14.46
2023-05-18T09:26:21.725Z,14.52
2023-05-18T09:28:54.138Z,14.61
2023-05-18T09:31:24.607Z,14.66
2023-05-18T09:33:53.777Z,14.56
2023-05-18T09:36:26.142Z,14.65
2023-05-18T09:38:55.465Z,14.42
2023-05-18T09:41:27.572Z,14.64
2023-05-18T09:43:55.772Z,14.79
2023-05-18T09:46:23.579Z,14.81
2023-05-18T09:48:54.025Z,14.84
2023-05-18T09:51:25.242Z,14.88
2023-05-18T09:53:57.017Z,14.82
2023-05-18T09:56:26.933Z,14.77
2023-05-18T09:58:55.458Z,14.83
2023-05-18T10:01:23.315Z,14.71
2023-05-18T10:03:51.246Z,15.19
2023-05-18T10:06:21.394Z,15.24
2023-05-18T10:08:49.583Z,15.36
2023-05-18T10:11:21.966Z,15.30
2023-05-18T10:13:55.327Z,15.26
2023-05-18T10:16:25.137Z,15.31
2023-05-18T10:18:55.765Z,15.29
2023-05-18T10:21:32.206Z,15.39
2023-05-18T10:24:02.862Z,15.65
2023-05-18T10:26:41.955Z,15.60
2023-05-18T10:29:11.372Z,15.89
2023-05-18T10:31:40.188Z,15.91
2023-05-18T10:34:10.447Z,16.03
2023-05-18T10:36:39.325Z,15.96
2023-05-18T10:39:08.922Z,15.87
2023-05-18T10:41:40.289Z,16.09
2023-05-18T10:44:08.811Z,16.61
2023-05-18T10:46:37.069Z,17.29
2023-05-18T10:49:12.940Z,17.72
2023-05-18T10:51:43.634Z,18.22
2023-05-18T10:54:14.049Z,18.17
2023-05-18T10:56:47.745Z,18.45
2023-05-18T10:59:18.382Z,18.83
2023-05-18T11:01:48.089Z,19.01
2023-05-18T11:04:16.058Z,19.15
2023-05-18T11:06:43.848Z,19.36
2023-05-18T11:09:24.860Z,19.31
2023-05-18T11:11:56.017Z,19.38
2023-05-18T11:14:28.224Z,19.64
2023-05-18T11:17:16.392Z,19.93
2023-05-18T11:20:12.991Z,20.30
2023-05-18T11:23:03.656Z,20.43
2023-05-18T11:25:38.945Z,20.67
2023-05-18T11:28:20.905Z,20.46
2023-05-18T11:30:53.373Z,20.16
2023-05-18T11:33:29.930Z,20.49
2023-05-18T11:36:08.116Z,20.69
2023-05-18T11:38:56.839Z,20.61
2023-05-18T11:41:39.278Z,21.08
2023-05-18T11:44:17.304Z,21.04
2023-05-18T11:46:58.445Z,21.61
2023-05-18T11:49:27.923Z,21.69
2023-05-18T11:51:58.985Z,21.81
2023-05-18T11:54:29.115Z,22.06
2023-05-18T11:56:57.262Z,22.12
2023-05-18T11:59:34.348Z,21.92
2023-05-18T12:02:04.278Z,21.52
2023-05-18T12:04:33.608Z,21.20
2023-05-18T12:07:06.675Z,21.69
2023-05-18T12:09:35.226Z,22.20
2023-05-18T12:12:03.243Z,22.60
2023-05-18T12:14:36.034Z,22.93
2023-05-18T12:17:04.110Z,23.44
2023-05-18T12:19:38.293Z,23.54
2023-05-18T12:22:06.434Z,22.77
2023-05-18T12:24:34.244Z,22.45
2023-05-18T12:27:06.816Z,22.56
2023-05-18T12:29:39.187Z,22.77
2023-05-18T12:32:09.668Z,22.54
2023-05-18T12:34:38.366Z,23.16
2023-05-18T12:37:07.416Z,23.74
2023-05-18T12:39:35.319Z,24.05
2023-05-18T12:42:11.414Z,24.31
2023-05-18T12:44:40.757Z,24.41
2023-05-18T12:47:08.773Z,24.31
2023-05-18T12:49:38.204Z,24.82
2023-05-18T12:52:14.068Z,24.81
2023-05-18T12:54:55.630Z,25.19
2023-05-18T12:57:26.972Z,24.94
2023-05-18T12:59:56.403Z,24.24
2023-05-18T13:02:32.752Z,24.03
2023-05-18T13:05:05.632Z,24.45
2023-05-18T13:07:34.399Z,24.60
2023-05-18T13:10:02.900Z,24.88
2023-05-18T13:12:41.172Z,25.13
2023-05-18T13:15:15.627Z,24.51
2023-05-18T13:17:50.738Z,24.20
2023-05-18T13:20:18.705Z,24.34
2023-05-18T13:22:46.516Z,24.27
2023-05-18T13:25:14.344Z,23.65
2023-05-18T13:27:42.178Z,23.70
2023-05-18T13:30:11.069Z,24.16
2023-05-18T13:32:40.285Z,24.61
2023-05-18T13:35:08.530Z,24.91
2023-05-18T13:37:36.561Z,24.12
2023-05-18T13:40:04.955Z,23.78
2023-05-18T13:42:33.113Z,24.36
2023-05-18T13:45:00.981Z,23.95
2023-05-18T13:47:28.793Z,24.14
2023-05-18T13:49:57.949Z,23.78
2023-05-18T13:52:26.029Z,23.26
2023-05-18T13:54:53.841Z,23.07
2023-05-18T13:57:23.225Z,23.62
2023-05-18T13:59:51.109Z,24.12
2023-05-18T14:02:18.985Z,24.37
2023-05-18T14:04:46.944Z,24.58
2023-05-18T14:07:16.077Z,24.70
2023-05-18T14:09:43.876Z,24.74
2023-05-18T14:12:12.970Z,24.43
2023-05-18T14:14:43.130Z,24.09
2023-05-18T14:17:11.668Z,24.03
2023-05-18T14:19:39.621Z,24.00
2023-05-18T14:22:07.553Z,23.88
2023-05-18T14:24:36.803Z,23.93
2023-05-18T14:27:04.933Z,24.04
2023-05-18T14:29:35.911Z,23.98
2023-05-18T14:32:04.088Z,24.20
2023-05-18T14:34:31.914Z,23.63
2023-05-18T14:36:59.775Z,23.75
2023-05-18T14:39:27.561Z,23.87
2023-05-18T14:41:56.621Z,23.84
2023-05-18T14:44:24.385Z,23.76
2023-05-18T14:46:53.383Z,23.56
2023-05-18T14:49:21.225Z,23.62
2023-05-18T14:51:49.116Z,23.61
2023-05-18T14:54:18.176Z,23.62
2023-05-18T14:56:46.355Z,23.21
2023-05-18T14:59:15.678Z,23.05
2023-05-18T15:01:43.473Z,22.71
2023-05-18T15:04:11.395Z,22.66
2023-05-18T15:06:39.322Z,22.63
2023-05-18T15:09:08.335Z,22.53
2023-05-18T15:11:36.205Z,22.53
2023-05-18T15:14:04.039Z,22.55
2023-05-18T15:16:33.265Z,22.57
2023-05-18T15:19:01.156Z,22.57
2023-05-18T15:21:28.990Z,22.60
2023-05-18T15:23:56.766Z,22.51
2023-05-18T15:26:24.638Z,22.30
2023-05-18T15:28:52.374Z,22.18
2023-05-18T15:31:20.222Z,22.17
2023-05-18T15:33:51.246Z,22.17
2023-05-18T15:36:19.215Z,22.17
2023-05-18T15:38:47.044Z,22.01
2023-05-18T15:41:16.412Z,22.08
2023-05-18T15:43:45.037Z,22.07
2023-05-18T15:46:12.902Z,22.01
2023-05-18T15:48:40.835Z,21.98
2023-05-18T15:51:10.102Z,22.01
2023-05-18T15:53:40.520Z,22.02
2023-05-18T15:56:10.964Z,21.90
2023-05-18T15:58:41.056Z,21.88
2023-05-18T16:01:08.940Z,21.85
2023-05-18T16:03:37.089Z,21.85
2023-05-18T16:06:08.277Z,21.81
2023-05-18T16:08:40.550Z,21.79
2023-05-18T16:11:08.347Z,21.61
2023-05-18T16:13:37.861Z,21.75
2023-05-18T16:16:06.944Z,21.75
2023-05-18T16:18:40.931Z,21.79
2023-05-18T16:21:09.288Z,21.77
2023-05-18T16:23:41.220Z,21.78
2023-05-18T16:26:09.066Z,21.83
2023-05-18T16:28:42.783Z,21.96
2023-05-18T16:31:12.190Z,22.03
2023-05-18T16:33:41.070Z,22.16
2023-05-18T16:36:14.634Z,22.22
2023-05-18T16:38:43.895Z,22.30
2023-05-18T16:41:12.481Z,22.42
2023-05-18T16:43:40.242Z,22.44
2023-05-18T16:46:11.368Z,22.52
2023-05-18T16:48:42.295Z,22.50
2023-05-18T16:51:10.126Z,22.50
2023-05-18T16:53:38.081Z,22.47
2023-05-18T16:56:07.701Z,22.43
2023-05-18T16:58:35.692Z,22.37
2023-05-18T17:01:09.851Z,22.30
2023-05-18T17:03:44.069Z,22.19
2023-05-18T17:06:12.120Z,22.03
2023-05-18T17:08:40.045Z,21.96
2023-05-18T17:11:09.219Z,21.83
2023-05-18T17:13:37.115Z,21.74
2023-05-18T17:16:06.579Z,21.43
2023-05-18T17:18:34.488Z,21.47
2023-05-18T17:21:02.288Z,21.35
2023-05-18T17:23:30.141Z,21.25
2023-05-18T17:26:06.098Z,21.20
2023-05-18T17:28:35.863Z,21.13
2023-05-18T17:31:04.143Z,21.08
2023-05-18T17:33:32.080Z,20.99
2023-05-18T17:36:00.036Z,20.90
2023-05-18T17:38:27.912Z,20.66
2023-05-18T17:40:56.620Z,20.56
2023-05-18T17:43:24.547Z,20.36
2023-05-18T17:45:53.712Z,20.21
2023-05-18T17:48:21.591Z,20.07
2023-05-18T17:50:49.596Z,19.98
2023-05-18T17:53:17.745Z,19.89
2023-05-18T17:55:45.523Z,19.61
2023-05-18T17:58:13.273Z,19.72
2023-05-18T18:00:41.107Z,19.62
2023-05-18T18:03:10.532Z,19.59
2023-05-18T18:05:38.449Z,19.50
2023-05-18T18:08:06.430Z,19.32
2023-05-18T18:10:34.802Z,19.35
2023-05-18T18:13:02.716Z,19.29
2023-05-18T18:15:30.615Z,19.26
2023-05-18T18:17:58.540Z,19.20
2023-05-18T18:20:27.848Z,19.10
2023-05-18T18:22:55.645Z,19.04
2023-05-18T18:25:23.538Z,19.02
2023-05-18T18:27:51.319Z,19.00
2023-05-18T18:30:19.118Z,18.93
2023-05-18T18:32:46.887Z,18.88
2023-05-18T18:35:14.806Z,18.80
2023-05-18T18:37:45.700Z,18.74
2023-05-18T18:40:14.456Z,18.71
2023-05-18T18:42:42.565Z,18.50
2023-05-18T18:45:11.035Z,18.60
2023-05-18T18:47:39.916Z,18.51
2023-05-18T18:50:08.736Z,18.42
2023-05-18T18:52:36.884Z,18.44
2023-05-18T18:55:07.027Z,18.45
2023-05-18T18:57:34.932Z,18.35
2023-05-18T19:00:04.873Z,18.30
2023-05-18T19:02:32.652Z,18.26
2023-05-18T19:05:00.651Z,18.26
2023-05-18T19:07:28.556Z,18.18
2023-05-18T19:09:56.384Z,17.99
2023-05-18T19:12:25.896Z,18.07
2023-05-18T19:14:53.749Z,18.02
2023-05-18T19:17:21.849Z,18.00
2023-05-18T19:19:49.795Z,17.95
2023-05-18T19:22:17.703Z,17.89
2023-05-18T19:24:46.061Z,17.56
2023-05-18T19:27:14.125Z,17.79
2023-05-18T19:29:43.364Z,17.77
2023-05-18T19:32:11.916Z,17.69
2023-05-18T19:34:39.811Z,17.54
2023-05-18T19:37:10.256Z,17.61
2023-05-18T19:39:38.067Z,17.58
2023-05-18T19:42:06.918Z,17.52
2023-05-18T19:44:34.774Z,17.47
2023-05-18T19:47:04.392Z,17.36
2023-05-18T19:49:34.320Z,17.39
2023-05-18T19:52:07.860Z,17.27
2023-05-18T19:54:36.149Z,17.32
2023-05-18T19:57:06.670Z,17.38
2023-05-18T19:59:34.586Z,17.34
2023-05-18T20:02:05.115Z,17.31
2023-05-18T20:07:01.934Z,17.24
2023-05-18T20:09:30.911Z,17.19
2023-05-18T20:11:58.679Z,17.19
2023-05-18T20:14:26.977Z,17.15
2023-05-18T20:16:56.210Z,17.16
2023-05-18T20:19:27.577Z,17.12
2023-05-18T20:21:55.860Z,17.07
2023-05-18T20:24:25.017Z,17.04
2023-05-18T20:26:52.900Z,17.01
2023-05-18T20:29:20.747Z,16.96
2023-05-18T20:31:48.814Z,16.92
2023-05-18T20:34:16.663Z,16.92
2023-05-18T20:36:45.855Z,16.88
2023-05-18T20:39:14.463Z,16.86
2023-05-18T20:41:42.288Z,16.82
2023-05-18T20:44:11.294Z,16.79
2023-05-18T20:46:42.430Z,16.75
2023-05-18T20:49:13.667Z,16.73
2023-05-18T20:51:41.538Z,16.72
2023-05-18T20:54:10.798Z,16.68
2023-05-18T20:56:38.868Z,16.69
2023-05-18T20:59:06.728Z,16.67
2023-05-18T21:01:39.095Z,16.62
2023-05-18T21:04:08.675Z,16.61
2023-05-18T21:06:40.407Z,16.54
2023-05-18T21:09:08.357Z,16.55
2023-05-18T21:11:37.563Z,16.51
2023-05-18T21:14:05.415Z,16.48
2023-05-18T21:16:33.397Z,16.47
2023-05-18T21:19:01.493Z,16.38
2023-05-18T21:21:29.330Z,16.41
2023-05-18T21:23:57.199Z,16.33
2023-05-18T21:26:25.088Z,16.30
2023-05-18T21:28:55.091Z,16.30
2023-05-18T21:31:23.073Z,16.24
2023-05-18T21:33:54.578Z,16.24
2023-05-18T21:36:33.602Z,16.21
2023-05-18T21:39:01.755Z,16.15
2023-05-18T21:41:29.572Z,16.14
2023-05-18T21:44:02.362Z,16.10
2023-05-18T21:46:30.357Z,15.93
2023-05-18T21:49:01.177Z,15.94
2023-05-18T21:51:31.144Z,16.00
2023-05-18T21:53:58.965Z,15.99
2023-05-18T21:56:27.692Z,16.01
2023-05-18T21:58:56.939Z,15.99
2023-05-18T22:01:27.242Z,15.94
2023-05-18T22:03:55.822Z,15.91
2023-05-18T22:06:23.784Z,15.86
2023-05-18T22:08:51.733Z,15.81
2023-05-18T22:11:19.670Z,15.77
2023-05-18T22:13:47.476Z,15.51
2023-05-18T22:16:15.521Z,15.74
2023-05-18T22:18:44.713Z,15.71
2023-05-18T22:21:12.561Z,15.66
2023-05-18T22:23:40.312Z,15.64
2023-05-18T22:26:08.269Z,15.63
2023-05-18T22:28:38.259Z,15.60
2023-05-18T22:31:06.537Z,15.58
2023-05-18T22:33:34.383Z,15.52
2023-05-18T22:36:04.010Z,15.52
2023-05-18T22:38:31.819Z,15.47
2023-05-18T22:40:59.671Z,15.44
2023-05-18T22:43:28.927Z,15.39
2023-05-18T22:45:56.819Z,15.35
2023-05-18T22:48:27.582Z,15.32
2023-05-18T22:50:55.605Z,15.29
2023-05-18T22:53:24.890Z,15.25
2023-05-18T22:55:52.703Z,15.20
2023-05-18T22:58:20.544Z,15.13
2023-05-18T23:00:48.344Z,15.08
2023-05-18T23:03:17.445Z,15.04
2023-05-18T23:05:46.145Z,15.04
2023-05-18T23:08:14.220Z,14.98
2023-05-18T23:10:44.363Z,14.94
2023-05-18T23:13:12.295Z,14.94
2023-05-18T23:15:41.470Z,14.91
2023-05-18T23:18:10.313Z,14.87
2023-05-18T23:20:38.706Z,14.83
2023-05-18T23:23:06.895Z,14.77
2023-05-18T23:25:34.757Z,14.75
2023-05-18T23:28:03.895Z,14.74
2023-05-18T23:30:32.177Z,14.70
2023-05-18T23:33:00.968Z,14.63
2023-05-18T23:35:29.761Z,14.66
2023-05-18T23:37:58.969Z,14.60
2023-05-18T23:40:27.283Z,14.57
2023-05-18T23:42:55.682Z,14.55
2023-05-18T23:45:25.460Z,14.38
2023-05-18T23:47:56.077Z,14.42
2023-05-18T23:50:24.755Z,14.46
2023-05-18T23:52:54.303Z,14.42
2023-05-18T23:55:24.902Z,14.40
2023-05-18T23:57:53.236Z,14.34
